createdAt,value
2022-10-09T00:02:06.265Z,95407.84
2022-10-09T00:10:29.614Z,95366.19
2022-10-09T00:18:53.063Z,95302.22
2022-10-09T00:27:15.825Z,95211.45
2022-10-09T00:35:40.065Z,95159.30
2022-10-09T00:44:24.428Z,95070.52
2022-10-09T00:52:50.680Z,94955.86
2022-10-09T01:01:13.630Z,94900.23
2022-10-09T01:10:15.189Z,94895.90
2022-10-09T01:18:48.709Z,94888.36
2022-10-09T01:27:18.529Z,94841.37
2022-10-09T01:35:43.248Z,94814.32
2022-10-09T01:44:28.975Z,94819.55
2022-10-09T01:52:54.587Z,94854.67
2022-10-09T02:01:27.679Z,94845.13
2022-10-09T02:09:50.878Z,94794.66
2022-10-09T02:18:16.934Z,94747.92
2022-10-09T02:26:39.934Z,94732.33
2022-10-09T02:35:02.818Z,94746.44
2022-10-09T02:43:25.790Z,94739.98
2022-10-09T02:51:48.587Z,94723.08
2022-10-09T03:00:12.216Z,94718.02
2022-10-09T03:08:36.508Z,94712.01
2022-10-09T03:16:59.868Z,94682.94
2022-10-09T03:25:25.476Z,94635.66
2022-10-09T03:33:48.308Z,94566.25
2022-10-09T03:42:11.068Z,94475.08
2022-10-09T03:50:34.316Z,94406.99
2022-10-09T03:58:57.007Z,94372.00
2022-10-09T04:07:19.816Z,94319.08
2022-10-09T04:15:51.350Z,94250.17
2022-10-09T04:24:14.039Z,94228.90
2022-10-09T04:32:36.829Z,94247.48
2022-10-09T04:41:05.681Z,94281.63
2022-10-09T04:49:28.408Z,94278.08
2022-10-09T04:57:51.227Z,94249.97
2022-10-09T05:06:16.122Z,94213.13
2022-10-09T05:14:38.811Z,94194.47
2022-10-09T05:23:01.795Z,94174.00
2022-10-09T05:31:27.352Z,94167.48
2022-10-09T05:39:50.133Z,94184.42
2022-10-09T05:48:12.824Z,94189.05
2022-10-09T05:56:38.291Z,94179.81
2022-10-09T06:05:01.007Z,94200.19
2022-10-09T06:13:23.788Z,94220.09
2022-10-09T06:21:47.348Z,94243.05
2022-10-09T06:30:10.621Z,94272.67
2022-10-09T06:38:35.190Z,94307.45
2022-10-09T06:46:57.970Z,94326.45
2022-10-09T06:55:23.148Z,94355.75
2022-10-09T07:03:55.128Z,94387.35
2022-10-09T07:12:17.927Z,94425.94
2022-10-09T07:20:40.735Z,94458.48
2022-10-09T07:29:06.748Z,94506.88
2022-10-09T07:37:29.672Z,94528.27
2022-10-09T07:45:52.440Z,94502.60
2022-10-09T07:54:15.339Z,94495.91
2022-10-09T08:02:38.273Z,94498.81
2022-10-09T08:11:12.531Z,94478.50
2022-10-09T08:19:35.307Z,94507.73
2022-10-09T08:27:58.055Z,94608.02
2022-10-09T08:36:22.137Z,94656.99
2022-10-09T08:44:49.022Z,94649.44
2022-10-09T08:53:31.107Z,94619.11
2022-10-09T09:02:04.623Z,94588.25
2022-10-09T09:10:47.531Z,94546.55
2022-10-09T09:19:25.746Z,94588.01
2022-10-09T09:27:50.421Z,94623.34
2022-10-09T09:36:31.178Z,94682.48
2022-10-09T09:45:19.890Z,94777.70
2022-10-09T09:53:46.053Z,94830.15
2022-10-09T10:02:13.950Z,94819.27
2022-10-09T10:10:36.922Z,94869.81
2022-10-09T10:18:59.888Z,94941.90
2022-10-09T10:27:43.954Z,94975.73
2022-10-09T10:36:10.202Z,95013.98
2022-10-09T10:44:46.277Z,95060.32
2022-10-09T10:53:12.198Z,95079.11
2022-10-09T11:01:59.166Z,95095.25
2022-10-09T11:10:37.345Z,95101.88
2022-10-09T11:19:19.015Z,95147.90
2022-10-09T11:27:52.848Z,95150.61
2022-10-09T11:36:33.853Z,95112.92
2022-10-09T11:45:19.884Z,95079.79
2022-10-09T11:53:44.325Z,95153.05
2022-10-09T12:02:22.627Z,95205.12
2022-10-09T12:10:59.348Z,95284.58
2022-10-09T12:19:28.608Z,95362.38
2022-10-09T12:27:54.978Z,95359.19
2022-10-09T12:36:27.523Z,95301.35
2022-10-09T12:44:54.374Z,95245.14
2022-10-09T12:53:21.035Z,95216.50
2022-10-09T13:01:45.902Z,95203.98
2022-10-09T13:10:19.539Z,95133.84
2022-10-09T13:18:42.330Z,95085.84
2022-10-09T13:27:06.109Z,95043.63
2022-10-09T13:35:28.913Z,94983.71
2022-10-09T13:43:53.364Z,94962.34
2022-10-09T13:52:17.669Z,94970.87
2022-10-09T14:00:40.619Z,94985.82
2022-10-09T14:09:06.186Z,94958.05
2022-10-09T14:17:29.153Z,94945.10
2022-10-09T14:25:52.057Z,94906.80
2022-10-09T14:34:15.195Z,94839.07
2022-10-09T14:42:38.973Z,94793.95
2022-10-09T14:51:03.728Z,94765.40
2022-10-09T14:59:26.757Z,94728.59
2022-10-09T15:07:49.905Z,94730.66
2022-10-09T15:16:15.726Z,94730.77
2022-10-09T15:24:38.718Z,94726.70
2022-10-09T15:33:03.518Z,94672.17
2022-10-09T15:41:29.602Z,94616.48
2022-10-09T15:49:53.506Z,94562.05
2022-10-09T15:58:17.478Z,94444.23
2022-10-09T16:06:40.247Z,94338.77
2022-10-09T16:15:03.224Z,94231.96
2022-10-09T16:23:26.011Z,94087.85
2022-10-09T16:31:48.721Z,93941.88
2022-10-09T16:40:11.607Z,93850.67
2022-10-09T16:48:34.431Z,93787.95
2022-10-09T16:56:57.283Z,93707.27
2022-10-09T17:05:20.390Z,93619.04
2022-10-09T17:13:44.893Z,93498.46
2022-10-09T17:22:07.899Z,93372.59
2022-10-09T17:30:30.633Z,93311.39
2022-10-09T17:38:53.811Z,93244.84
2022-10-09T17:47:16.567Z,93233.04
2022-10-09T17:55:39.337Z,93203.73
2022-10-09T18:04:02.241Z,93112.80
2022-10-09T18:12:25.023Z,93052.73
2022-10-09T18:20:47.804Z,92988.82
2022-10-09T18:29:10.547Z,92932.89
2022-10-09T18:37:33.680Z,92879.52
2022-10-09T18:45:58.579Z,92822.10
2022-10-09T18:54:24.708Z,92759.46
2022-10-09T19:02:47.517Z,92693.55
2022-10-09T19:11:10.450Z,92612.33
2022-10-09T19:19:34.162Z,92557.95
2022-10-09T19:27:57.007Z,92503.14
2022-10-09T19:36:19.776Z,92435.67
2022-10-09T19:44:44.332Z,92383.20
2022-10-09T19:53:07.365Z,92325.06
2022-10-09T20:01:33.227Z,92283.71
2022-10-09T20:09:56.376Z,92249.31
2022-10-09T20:18:19.102Z,92178.82
2022-10-09T20:26:43.291Z,92123.34
2022-10-09T20:35:07.111Z,92098.46
2022-10-09T20:43:29.897Z,92074.02
2022-10-09T20:51:53.356Z,92048.18
2022-10-09T21:00:16.134Z,92008.16
2022-10-09T21:08:39.369Z,91981.88
2022-10-09T21:17:02.205Z,91973.70
2022-10-09T21:25:24.953Z,91953.73
2022-10-09T21:33:47.933Z,91936.36
2022-10-09T21:42:10.768Z,91901.10
2022-10-09T21:50:34.644Z,91862.56
2022-10-09T21:58:57.530Z,91856.42
2022-10-09T22:07:21.155Z,91837.26
2022-10-09T22:15:48.836Z,91789.23
2022-10-09T22:24:14.227Z,91709.89
2022-10-09T22:32:36.949Z,91632.20
2022-10-09T22:41:09.071Z,91613.20
2022-10-09T22:49:31.846Z,91613.73
2022-10-09T22:57:54.546Z,91601.31
2022-10-09T23:06:19.649Z,91610.05
2022-10-09T23:14:42.327Z,91590.10
2022-10-09T23:23:05.062Z,91559.43
2022-10-09T23:31:28.234Z,91534.48
2022-10-09T23:39:51.516Z,91505.90
2022-10-09T23:48:14.257Z,91478.61
2022-10-09T23:56:37.733Z,91468.70
